sensor_id;sensor_type;location;lat;lon;timestamp;P1;durP1;ratioP1;P2;durP2;ratioP2
24421;SDS011;12600;53.326;-6.298;2023-09-18T00:00:13;46.00;;;25.73;;
24421;SDS011;12600;53.326;-6.298;2023-09-18T00:03:02;45.20;;;24.75;;
24421;SDS011;12600;53.326;-6.298;2023-09-18T00:05:53;49.20;;;26.90;;
24421;SDS011;12600;53.326;-6.298;2023-09-18T00:08:42;48.00;;;27.13;;
24421;SDS011;12600;53.326;-6.298;2023-09-18T00:11:31;50.30;;;26.83;;
24421;SDS011;12600;53.326;-6.298;2023-09-18T00:14:20;51.10;;;27.42;;
24421;SDS011;12600;53.326;-6.298;2023-09-18T00:17:10;43.90;;;25.33;;
24421;SDS011;12600;53.326;-6.298;2023-09-18T00:20:00;43.00;;;25.05;;
24421;SDS011;12600;53.326;-6.298;2023-09-18T00:22:51;44.08;;;25.05;;
24421;SDS011;12600;53.326;-6.298;2023-09-18T00:25:41;39.67;;;23.80;;
24421;SDS011;12600;53.326;-6.298;2023-09-18T00:28:30;45.38;;;24.92;;
24421;SDS011;12600;53.326;-6.298;2023-09-18T00:31:19;42.13;;;23.58;;
24421;SDS011;12600;53.326;-6.298;2023-09-18T00:34:08;39.30;;;23.38;;
24421;SDS011;12600;53.326;-6.298;2023-09-18T00:36:57;38.75;;;22.92;;
24421;SDS011;12600;53.326;-6.298;2023-09-18T00:39:49;37.95;;;21.90;;
24421;SDS011;12600;53.326;-6.298;2023-09-18T00:42:38;32.55;;;20.27;;
24421;SDS011;12600;53.326;-6.298;2023-09-18T00:45:27;36.50;;;22.15;;
24421;SDS011;12600;53.326;-6.298;2023-09-18T00:48:16;38.17;;;23.25;;
24421;SDS011;12600;53.326;-6.298;2023-09-18T00:51:06;35.10;;;22.70;;
24421;SDS011;12600;53.326;-6.298;2023-09-18T00:53:56;41.63;;;24.13;;
24421;SDS011;12600;53.326;-6.298;2023-09-18T00:56:46;43.15;;;24.58;;
24421;SDS011;12600;53.326;-6.298;2023-09-18T00:59:41;41.25;;;24.90;;
24421;SDS011;12600;53.326;-6.298;2023-09-18T01:02:30;46.92;;;26.30;;
24421;SDS011;12600;53.326;-6.298;2023-09-18T01:05:19;46.10;;;26.00;;
24421;SDS011;12600;53.326;-6.298;2023-09-18T01:08:09;48.15;;;25.40;;
24421;SDS011;12600;53.326;-6.298;2023-09-18T01:10:59;49.03;;;25.42;;
24421;SDS011;12600;53.326;-6.298;2023-09-18T01:13:57;46.28;;;24.95;;
24421;SDS011;12600;53.326;-6.298;2023-09-18T01:16:50;41.83;;;23.42;;
24421;SDS011;12600;53.326;-6.298;2023-09-18T01:19:43;38.42;;;21.73;;
24421;SDS011;12600;53.326;-6.298;2023-09-18T01:22:35;39.33;;;21.90;;
24421;SDS011;12600;53.326;-6.298;2023-09-18T01:25:24;34.55;;;21.13;;
24421;SDS011;12600;53.326;-6.298;2023-09-18T01:28:13;38.42;;;22.90;;
24421;SDS011;12600;53.326;-6.298;2023-09-18T01:31:03;41.80;;;22.55;;
24421;SDS011;12600;53.326;-6.298;2023-09-18T01:33:54;41.85;;;24.63;;
24421;SDS011;12600;53.326;-6.298;2023-09-18T01:36:44;42.08;;;23.13;;
24421;SDS011;12600;53.326;-6.298;2023-09-18T01:39:34;44.90;;;25.60;;
24421;SDS011;12600;53.326;-6.298;2023-09-18T01:42:24;49.50;;;25.55;;
24421;SDS011;12600;53.326;-6.298;2023-09-18T01:45:13;51.40;;;27.77;;
24421;SDS011;12600;53.326;-6.298;2023-09-18T01:48:04;56.40;;;26.77;;
24421;SDS011;12600;53.326;-6.298;2023-09-18T01:50:53;49.55;;;24.33;;
24421;SDS011;12600;53.326;-6.298;2023-09-18T01:53:43;56.08;;;26.17;;
24421;SDS011;12600;53.326;-6.298;2023-09-18T01:56:33;61.33;;;28.98;;
24421;SDS011;12600;53.326;-6.298;2023-09-18T01:59:23;62.15;;;27.67;;
24421;SDS011;12600;53.326;-6.298;2023-09-18T02:02:13;66.13;;;28.15;;
24421;SDS011;12600;53.326;-6.298;2023-09-18T02:05:16;64.00;;;27.95;;
24421;SDS011;12600;53.326;-6.298;2023-09-18T02:08:05;59.38;;;27.80;;
24421;SDS011;12600;53.326;-6.298;2023-09-18T02:10:54;61.30;;;27.85;;
24421;SDS011;12600;53.326;-6.298;2023-09-18T02:13:45;67.95;;;28.55;;
24421;SDS011;12600;53.326;-6.298;2023-09-18T02:16:36;65.80;;;28.02;;
24421;SDS011;12600;53.326;-6.298;2023-09-18T02:19:28;64.80;;;28.83;;
24421;SDS011;12600;53.326;-6.298;2023-09-18T02:22:17;61.08;;;28.27;;
24421;SDS011;12600;53.326;-6.298;2023-09-18T02:25:07;57.75;;;27.13;;
24421;SDS011;12600;53.326;-6.298;2023-09-18T02:27:56;63.75;;;27.55;;
24421;SDS011;12600;53.326;-6.298;2023-09-18T02:30:46;58.30;;;27.35;;
24421;SDS011;12600;53.326;-6.298;2023-09-18T02:33:37;57.17;;;27.48;;
24421;SDS011;12600;53.326;-6.298;2023-09-18T02:36:26;59.53;;;27.38;;
24421;SDS011;12600;53.326;-6.298;2023-09-18T02:39:15;59.38;;;27.13;;
24421;SDS011;12600;53.326;-6.298;2023-09-18T02:42:04;58.42;;;27.60;;
24421;SDS011;12600;53.326;-6.298;2023-09-18T02:44:53;56.58;;;24.75;;
24421;SDS011;12600;53.326;-6.298;2023-09-18T02:47:44;54.50;;;26.80;;
24421;SDS011;12600;53.326;-6.298;2023-09-18T02:50:34;55.75;;;26.58;;
24421;SDS011;12600;53.326;-6.298;2023-09-18T02:53:24;50.78;;;25.73;;
24421;SDS011;12600;53.326;-6.298;2023-09-18T02:56:13;47.03;;;23.75;;
24421;SDS011;12600;53.326;-6.298;2023-09-18T02:59:02;43.25;;;21.70;;
24421;SDS011;12600;53.326;-6.298;2023-09-18T03:01:51;42.95;;;22.48;;
24421;SDS011;12600;53.326;-6.298;2023-09-18T03:04:42;43.00;;;22.42;;
24421;SDS011;12600;53.326;-6.298;2023-09-18T03:07:31;34.90;;;19.00;;
24421;SDS011;12600;53.326;-6.298;2023-09-18T03:10:21;31.40;;;16.08;;
24421;SDS011;12600;53.326;-6.298;2023-09-18T03:13:10;28.52;;;16.55;;
24421;SDS011;12600;53.326;-6.298;2023-09-18T03:16:01;23.77;;;13.10;;
24421;SDS011;12600;53.326;-6.298;2023-09-18T03:18:50;21.45;;;11.85;;
24421;SDS011;12600;53.326;-6.298;2023-09-18T03:21:41;24.92;;;12.65;;
24421;SDS011;12600;53.326;-6.298;2023-09-18T03:24:30;17.98;;;9.65;;
24421;SDS011;12600;53.326;-6.298;2023-09-18T03:27:19;13.93;;;8.40;;
24421;SDS011;12600;53.326;-6.298;2023-09-18T03:30:09;17.17;;;9.77;;
24421;SDS011;12600;53.326;-6.298;2023-09-18T03:33:00;12.90;;;8.85;;
24421;SDS011;12600;53.326;-6.298;2023-09-18T03:35:51;11.80;;;7.78;;
24421;SDS011;12600;53.326;-6.298;2023-09-18T03:38:47;12.13;;;7.72;;
24421;SDS011;12600;53.326;-6.298;2023-09-18T03:41:36;11.77;;;7.35;;
24421;SDS011;12600;53.326;-6.298;2023-09-18T03:44:26;10.32;;;6.30;;
24421;SDS011;12600;53.326;-6.298;2023-09-18T03:47:15;10.43;;;6.20;;
24421;SDS011;12600;53.326;-6.298;2023-09-18T03:50:05;10.60;;;6.20;;
24421;SDS011;12600;53.326;-6.298;2023-09-18T03:52:55;10.93;;;6.85;;
24421;SDS011;12600;53.326;-6.298;2023-09-18T03:55:47;9.15;;;6.07;;
24421;SDS011;12600;53.326;-6.298;2023-09-18T03:58:37;11.77;;;6.70;;
24421;SDS011;12600;53.326;-6.298;2023-09-18T04:01:26;9.57;;;6.15;;
24421;SDS011;12600;53.326;-6.298;2023-09-18T04:04:15;10.40;;;6.22;;
24421;SDS011;12600;53.326;-6.298;2023-09-18T04:07:05;8.75;;;5.75;;
24421;SDS011;12600;53.326;-6.298;2023-09-18T04:09:54;10.45;;;5.45;;
24421;SDS011;12600;53.326;-6.298;2023-09-18T04:12:46;9.75;;;5.85;;
24421;SDS011;12600;53.326;-6.298;2023-09-18T04:15:35;10.88;;;6.15;;
24421;SDS011;12600;53.326;-6.298;2023-09-18T04:18:26;10.40;;;5.22;;
24421;SDS011;12600;53.326;-6.298;2023-09-18T04:21:16;9.85;;;5.50;;
24421;SDS011;12600;53.326;-6.298;2023-09-18T04:24:05;10.77;;;5.78;;
24421;SDS011;12600;53.326;-6.298;2023-09-18T04:26:58;8.77;;;4.85;;
24421;SDS011;12600;53.326;-6.298;2023-09-18T04:29:48;9.27;;;5.57;;
24421;SDS011;12600;53.326;-6.298;2023-09-18T04:32:37;9.88;;;4.97;;
24421;SDS011;12600;53.326;-6.298;2023-09-18T04:35:27;8.43;;;4.95;;
24421;SDS011;12600;53.326;-6.298;2023-09-18T04:38:18;10.38;;;4.72;;
24421;SDS011;12600;53.326;-6.298;2023-09-18T04:41:07;7.40;;;4.90;;
24421;SDS011;12600;53.326;-6.298;2023-09-18T04:43:58;9.25;;;5.55;;
24421;SDS011;12600;53.326;-6.298;2023-09-18T04:46:49;9.38;;;6.03;;
24421;SDS011;12600;53.326;-6.298;2023-09-18T04:49:38;10.35;;;6.28;;
24421;SDS011;12600;53.326;-6.298;2023-09-18T04:52:27;9.35;;;6.50;;
24421;SDS011;12600;53.326;-6.298;2023-09-18T04:55:16;7.35;;;5.28;;
24421;SDS011;12600;53.326;-6.298;2023-09-18T04:58:05;9.40;;;6.10;;
24421;SDS011;12600;53.326;-6.298;2023-09-18T05:00:55;12.48;;;6.43;;
24421;SDS011;12600;53.326;-6.298;2023-09-18T05:03:46;8.55;;;5.70;;
24421;SDS011;12600;53.326;-6.298;2023-09-18T05:06:36;13.82;;;6.22;;
24421;SDS011;12600;53.326;-6.298;2023-09-18T05:09:26;11.45;;;7.22;;
24421;SDS011;12600;53.326;-6.298;2023-09-18T05:12:15;12.10;;;8.23;;
24421;SDS011;12600;53.326;-6.298;2023-09-18T05:15:04;12.30;;;8.30;;
24421;SDS011;12600;53.326;-6.298;2023-09-18T05:17:54;13.32;;;8.13;;
24421;SDS011;12600;53.326;-6.298;2023-09-18T05:20:46;11.82;;;6.97;;
24421;SDS011;12600;53.326;-6.298;2023-09-18T05:23:35;13.93;;;8.32;;
24421;SDS011;12600;53.326;-6.298;2023-09-18T05:26:24;12.10;;;6.47;;
24421;SDS011;12600;53.326;-6.298;2023-09-18T05:29:14;8.93;;;6.25;;
24421;SDS011;12600;53.326;-6.298;2023-09-18T05:32:04;11.27;;;6.07;;
24421;SDS011;12600;53.326;-6.298;2023-09-18T05:34:53;12.32;;;5.80;;
24421;SDS011;12600;53.326;-6.298;2023-09-18T05:37:43;11.70;;;5.60;;
24421;SDS011;12600;53.326;-6.298;2023-09-18T05:40:32;9.27;;;5.70;;
24421;SDS011;12600;53.326;-6.298;2023-09-18T05:43:22;8.73;;;5.10;;
24421;SDS011;12600;53.326;-6.298;2023-09-18T05:46:11;8.52;;;4.80;;
24421;SDS011;12600;53.326;-6.298;2023-09-18T05:49:01;7.90;;;4.07;;
24421;SDS011;12600;53.326;-6.298;2023-09-18T05:51:50;7.07;;;3.50;;
24421;SDS011;12600;53.326;-6.298;2023-09-18T05:54:40;6.55;;;2.97;;
24421;SDS011;12600;53.326;-6.298;2023-09-18T05:57:29;6.00;;;3.00;;
24421;SDS011;12600;53.326;-6.298;2023-09-18T06:00:19;5.53;;;2.75;;
24421;SDS011;12600;53.326;-6.298;2023-09-18T06:03:09;6.03;;;2.80;;
24421;SDS011;12600;53.326;-6.298;2023-09-18T06:05:59;14.95;;;3.00;;
24421;SDS011;12600;53.326;-6.298;2023-09-18T06:08:49;8.10;;;3.00;;
24421;SDS011;12600;53.326;-6.298;2023-09-18T06:11:42;9.20;;;3.37;;
24421;SDS011;12600;53.326;-6.298;2023-09-18T06:14:31;5.97;;;2.67;;
24421;SDS011;12600;53.326;-6.298;2023-09-18T06:17:22;8.68;;;3.33;;
24421;SDS011;12600;53.326;-6.298;2023-09-18T06:20:12;9.30;;;3.13;;
24421;SDS011;12600;53.326;-6.298;2023-09-18T06:23:01;6.03;;;2.42;;
24421;SDS011;12600;53.326;-6.298;2023-09-18T06:25:51;6.40;;;2.53;;
24421;SDS011;12600;53.326;-6.298;2023-09-18T06:28:44;5.77;;;2.67;;
24421;SDS011;12600;53.326;-6.298;2023-09-18T06:31:38;5.50;;;2.47;;
24421;SDS011;12600;53.326;-6.298;2023-09-18T06:34:27;6.68;;;2.67;;
24421;SDS011;12600;53.326;-6.298;2023-09-18T06:37:16;9.35;;;3.30;;
24421;SDS011;12600;53.326;-6.298;2023-09-18T06:40:06;6.60;;;3.30;;
24421;SDS011;12600;53.326;-6.298;2023-09-18T06:42:59;6.07;;;3.47;;
24421;SDS011;12600;53.326;-6.298;2023-09-18T06:45:50;7.03;;;3.72;;
24421;SDS011;12600;53.326;-6.298;2023-09-18T06:48:39;6.55;;;4.43;;
24421;SDS011;12600;53.326;-6.298;2023-09-18T06:51:32;7.10;;;3.72;;
24421;SDS011;12600;53.326;-6.298;2023-09-18T06:54:29;9.43;;;4.18;;
24421;SDS011;12600;53.326;-6.298;2023-09-18T06:57:18;11.02;;;4.55;;
24421;SDS011;12600;53.326;-6.298;2023-09-18T07:00:08;8.23;;;4.10;;
24421;SDS011;12600;53.326;-6.298;2023-09-18T07:03:00;5.82;;;3.75;;
24421;SDS011;12600;53.326;-6.298;2023-09-18T07:05:50;5.95;;;3.92;;
24421;SDS011;12600;53.326;-6.298;2023-09-18T07:08:39;10.65;;;4.10;;
24421;SDS011;12600;53.326;-6.298;2023-09-18T07:11:28;9.05;;;3.80;;
24421;SDS011;12600;53.326;-6.298;2023-09-18T07:14:18;12.57;;;5.07;;
24421;SDS011;12600;53.326;-6.298;2023-09-18T07:17:07;7.90;;;2.75;;
24421;SDS011;12600;53.326;-6.298;2023-09-18T07:19:58;12.10;;;3.35;;
24421;SDS011;12600;53.326;-6.298;2023-09-18T07:22:47;8.80;;;3.15;;
24421;SDS011;12600;53.326;-6.298;2023-09-18T07:25:37;7.50;;;3.10;;
24421;SDS011;12600;53.326;-6.298;2023-09-18T07:28:26;6.10;;;3.03;;
24421;SDS011;12600;53.326;-6.298;2023-09-18T07:31:16;12.38;;;3.20;;
24421;SDS011;12600;53.326;-6.298;2023-09-18T07:34:05;6.13;;;2.35;;
24421;SDS011;12600;53.326;-6.298;2023-09-18T07:36:57;8.20;;;2.22;;
24421;SDS011;12600;53.326;-6.298;2023-09-18T07:39:46;6.65;;;2.20;;
24421;SDS011;12600;53.326;-6.298;2023-09-18T07:42:35;8.98;;;2.05;;
24421;SDS011;12600;53.326;-6.298;2023-09-18T07:45:24;7.65;;;2.78;;
24421;SDS011;12600;53.326;-6.298;2023-09-18T07:48:13;9.05;;;2.80;;
24421;SDS011;12600;53.326;-6.298;2023-09-18T07:51:04;10.02;;;2.53;;
24421;SDS011;12600;53.326;-6.298;2023-09-18T07:53:54;9.60;;;2.53;;
24421;SDS011;12600;53.326;-6.298;2023-09-18T07:56:43;7.32;;;2.50;;
24421;SDS011;12600;53.326;-6.298;2023-09-18T07:59:33;14.98;;;2.40;;
24421;SDS011;12600;53.326;-6.298;2023-09-18T08:02:22;8.65;;;2.00;;
24421;SDS011;12600;53.326;-6.298;2023-09-18T08:05:11;7.35;;;2.50;;
24421;SDS011;12600;53.326;-6.298;2023-09-18T08:08:01;10.00;;;2.85;;
24421;SDS011;12600;53.326;-6.298;2023-09-18T08:10:54;13.07;;;2.78;;
24421;SDS011;12600;53.326;-6.298;2023-09-18T08:13:43;9.32;;;2.40;;
24421;SDS011;12600;53.326;-6.298;2023-09-18T08:16:32;10.43;;;2.30;;
24421;SDS011;12600;53.326;-6.298;2023-09-18T08:19:21;8.75;;;2.17;;
24421;SDS011;12600;53.326;-6.298;2023-09-18T08:22:10;10.73;;;2.53;;
24421;SDS011;12600;53.326;-6.298;2023-09-18T08:25:02;12.57;;;1.98;;
24421;SDS011;12600;53.326;-6.298;2023-09-18T08:27:54;12.00;;;2.35;;
24421;SDS011;12600;53.326;-6.298;2023-09-18T08:30:43;12.10;;;2.33;;
24421;SDS011;12600;53.326;-6.298;2023-09-18T08:33:34;32.83;;;4.13;;
24421;SDS011;12600;53.326;-6.298;2023-09-18T08:36:23;11.10;;;2.00;;
24421;SDS011;12600;53.326;-6.298;2023-09-18T08:39:12;17.27;;;2.35;;
24421;SDS011;12600;53.326;-6.298;2023-09-18T08:42:02;12.85;;;2.30;;
24421;SDS011;12600;53.326;-6.298;2023-09-18T08:44:54;7.63;;;1.67;;
24421;SDS011;12600;53.326;-6.298;2023-09-18T08:47:44;8.85;;;1.75;;
24421;SDS011;12600;53.326;-6.298;2023-09-18T08:50:34;13.05;;;2.30;;
24421;SDS011;12600;53.326;-6.298;2023-09-18T08:53:25;9.75;;;1.65;;
24421;SDS011;12600;53.326;-6.298;2023-09-18T08:56:14;14.13;;;2.42;;
24421;SDS011;12600;53.326;-6.298;2023-09-18T08:59:03;10.50;;;1.75;;
24421;SDS011;12600;53.326;-6.298;2023-09-18T09:01:54;12.70;;;1.95;;
24421;SDS011;12600;53.326;-6.298;2023-09-18T09:04:43;10.77;;;1.80;;
24421;SDS011;12600;53.326;-6.298;2023-09-18T09:07:33;15.15;;;2.10;;
24421;SDS011;12600;53.326;-6.298;2023-09-18T09:10:22;10.10;;;2.28;;
24421;SDS011;12600;53.326;-6.298;2023-09-18T09:13:13;17.13;;;2.30;;
24421;SDS011;12600;53.326;-6.298;2023-09-18T09:16:20;15.40;;;2.10;;
24421;SDS011;12600;53.326;-6.298;2023-09-18T09:19:11;11.07;;;2.70;;
24421;SDS011;12600;53.326;-6.298;2023-09-18T09:22:00;16.10;;;2.70;;
24421;SDS011;12600;53.326;-6.298;2023-09-18T09:24:49;11.82;;;2.45;;
24421;SDS011;12600;53.326;-6.298;2023-09-18T09:27:43;15.00;;;2.35;;
24421;SDS011;12600;53.326;-6.298;2023-09-18T09:30:32;14.60;;;2.10;;
24421;SDS011;12600;53.326;-6.298;2023-09-18T09:33:24;12.55;;;2.13;;
24421;SDS011;12600;53.326;-6.298;2023-09-18T09:36:15;11.68;;;1.92;;
24421;SDS011;12600;53.326;-6.298;2023-09-18T09:39:04;11.20;;;1.73;;
24421;SDS011;12600;53.326;-6.298;2023-09-18T09:41:54;10.05;;;1.73;;
24421;SDS011;12600;53.326;-6.298;2023-09-18T09:44:43;35.80;;;16.65;;
24421;SDS011;12600;53.326;-6.298;2023-09-18T09:47:34;12.48;;;2.00;;
24421;SDS011;12600;53.326;-6.298;2023-09-18T09:50:23;13.60;;;2.33;;
24421;SDS011;12600;53.326;-6.298;2023-09-18T09:53:15;13.55;;;2.10;;
24421;SDS011;12600;53.326;-6.298;2023-09-18T09:56:05;10.82;;;2.08;;
24421;SDS011;12600;53.326;-6.298;2023-09-18T09:59:00;12.68;;;1.77;;
24421;SDS011;12600;53.326;-6.298;2023-09-18T10:01:52;15.13;;;2.00;;
24421;SDS011;12600;53.326;-6.298;2023-09-18T10:04:41;14.45;;;2.53;;
24421;SDS011;12600;53.326;-6.298;2023-09-18T10:07:34;10.95;;;1.92;;
24421;SDS011;12600;53.326;-6.298;2023-09-18T10:10:26;11.45;;;1.92;;
24421;SDS011;12600;53.326;-6.298;2023-09-18T10:13:20;11.20;;;2.17;;
24421;SDS011;12600;53.326;-6.298;2023-09-18T10:16:12;16.15;;;2.40;;
24421;SDS011;12600;53.326;-6.298;2023-09-18T10:19:09;15.10;;;2.40;;
24421;SDS011;12600;53.326;-6.298;2023-09-18T10:22:05;10.65;;;2.20;;
24421;SDS011;12600;53.326;-6.298;2023-09-18T10:24:46;10.05;;;1.98;;
24421;SDS011;12600;53.326;-6.298;2023-09-18T10:27:36;12.05;;;2.10;;
24421;SDS011;12600;53.326;-6.298;2023-09-18T10:30:27;9.32;;;1.98;;
24421;SDS011;12600;53.326;-6.298;2023-09-18T10:33:18;12.20;;;2.20;;
24421;SDS011;12600;53.326;-6.298;2023-09-18T10:36:09;12.40;;;1.83;;
24421;SDS011;12600;53.326;-6.298;2023-09-18T10:38:59;11.63;;;2.10;;
24421;SDS011;12600;53.326;-6.298;2023-09-18T10:41:53;11.45;;;2.00;;
24421;SDS011;12600;53.326;-6.298;2023-09-18T10:44:44;11.10;;;1.88;;
24421;SDS011;12600;53.326;-6.298;2023-09-18T10:47:33;11.90;;;2.45;;
24421;SDS011;12600;53.326;-6.298;2023-09-18T10:50:23;13.77;;;2.40;;
24421;SDS011;12600;53.326;-6.298;2023-09-18T10:53:13;9.60;;;1.60;;
24421;SDS011;12600;53.326;-6.298;2023-09-18T10:56:02;11.73;;;1.85;;
24421;SDS011;12600;53.326;-6.298;2023-09-18T10:59:00;11.77;;;2.33;;
